Hlavní strana
METAR-TAF:

METAR-TAF

Letiště :

Vladivostok, Rusko

zeměpisná šířka: 43-07N, zeměpisná délka: 131-56E, výška: 184 m

Aktuální stav počasí

Zpráva byla vytvořena před 39 minutami, v 18:30 UTC
Severní vítr 12 kt s nárazy do 21 kt
Teplota 17°C
Vlhkost vzduchu 88%
Tlak 1013 hPa
Viditelnost 10 km a více
Oblačno až skoro zataženo ve výšce 3300 ft, Cumulonimbus.

METAR: UHWW 151830Z 35006G11MPS 9999 BKN033CB 17/15 Q1013 R07R/29//63 NOSIG RMK QFE759

Čas: 05:09 (19:09 UTC)

Předpověď počasí

Zpráva byla vytvořena před 2 hodinami a 9 minutami, v 17:00 UTC
Předpověď platná od 15 v 18 UTC do 16 v 18 UTC
Severní vítr 6 kt
Viditelnost 10 km a více
Oblačno až skoro zataženo ve výšce 1700 ft, Cumulonimbus.
Dočasný
od 15 v 18 UTC do 16 v 10 UTC
Severní vítr 17 kt s nárazy do 27 kt
Viditelnost: 5000 m
Oblačno až skoro zataženo ve výšce 1300 ft, Cumulonimbus.
slabé dešťové přeháňky

TAF: UHWW 151700Z 1518/1618 36003MPS 9999 BKN017CB TEMPO 1518/1610 36009G14MPS 5000 -SHRA BKN013CB

Stav a předpovědi počasí z více než 4 000 letišť (zprávy METAR a TAF).

Červené a žluté tečky na mapě představují dostupné meteorologické stanice.

Když kurzor umístíte na tečku, zobrazí se název stanice.

Pak kliknutím zobrazíte stav a předpověď počasí.

Chcete-li změnit mapu, kliknutím na zelené tlačítko se znaménkem +mapu přiblížíte, kliknutím na zelené tlačítko se znaménkem – mapu oddálíte a kliknutím na zelené šipky přejdete na sousední mapy.


METAR-TAF: